Bookmark and Share
Track history (hours):
 

Callsign FC4 (name unknown)

Last reported at 2013-Mar-05 15:11 UTC. Time now 2014-Apr-16 22:33 UTC.
Position N 35°27' E 141°09'.
Warning: this ship's position is years out of date!

NotesDate/timePositionNaut miles runAvg speedWind from/ knotsBaromVisibWave heightAir tempDewpointWater temp
2013-Mar-05 15:11N 35°27' E 141°09'914.6
2013-Mar-05 14:33N 35°36' E 141°12'  
2013-Mar-01 01:08N 35°60' E 140°44'4 5.6
2013-Mar-01 00:23N 35°56' E 140°42'0 0.1
2013-Feb-28 23:27N 35°56' E 140°43'0 0.0
2013-Feb-28 18:08N 35°56' E 140°43'0 0.0
2013-Feb-28 17:33N 35°56' E 140°43'0 0.0
2013-Feb-28 16:27N 35°56' E 140°43'0 0.0
2013-Feb-28 15:33N 35°56' E 140°43'0 0.0
2013-Feb-28 14:21N 35°56' E 140°43'0 0.0
2013-Feb-28 13:27N 35°56' E 140°43'0 0.0
2013-Feb-28 12:33N 35°56' E 140°43'0 0.0
2013-Feb-28 11:26N 35°56' E 140°43'0 0.0
2013-Feb-28 09:15N 35°56' E 140°43'0 0.0
2013-Feb-28 07:15N 35°56' E 140°43'0 0.0
2013-Feb-28 02:24N 35°56' E 140°43'2 2.4
2013-Feb-28 01:33N 35°58' E 140°43'5 5.3
2013-Feb-28 00:33N 36°02' E 140°47'1010.4
2013-Feb-27 23:33N 36°06' E 140°59'1 0.3
2013-Feb-27 21:16N 36°06' E 140°60'1 0.7
2013-Feb-27 20:31N 36°05' E 140°59'1 0.9
2013-Feb-27 19:22N 36°04' E 140°59'1 1.0
2013-Feb-27 18:07N 36°03' E 140°58'1 1.1
2013-Feb-27 17:25N 36°02' E 140°58'2 1.0
2013-Feb-27 15:28N 36°00' E 140°58'2 2.2
2013-Feb-27 14:33N 35°60' E 141°01'2812.7
2013-Feb-27 12:23N 35°32' E 141°04'1315.0
2013-Feb-27 11:32N 35°22' E 140°54'1814.5
2013-Feb-27 10:18N 35°08' E 140°41'1613.9
2013-Feb-27 09:08N 34°55' E 140°29'813.6
2013-Feb-27 08:31N 34°49' E 140°23'1413.5
2013-Feb-27 07:30N 34°40' E 140°10'1515.2
2013-Feb-27 06:32N 34°31' E 139°56'  

Dump ship's entire track history

sailing weather and tide predictions

Ship Status Report: callsign FC4